Time;durP1;ratioP1;P1;durP2;ratioP2;P2;SDS_P1;SDS_P2;PMS_P1;PMS_P2;Temp;Humidity;BMP_temperature;BMP_pressure;BME280_temperature;BME280_humidity;BME280_pressure;Samples;Min_cycle;Max_cycle;Signal;HPM_P1;HPM_P2
2022/10/31 00:02:24;;;;;;;32.78;17.73;;;11.80;99.90;;;;;;5007450;28;20161;-53
2022/10/31 00:04:49;;;;;;;42.72;17.70;;;11.90;99.90;;;;;;5007626;28;20433;-53
2022/10/31 00:07:15;;;;;;;37.40;16.50;;;11.80;99.90;;;;;;5000820;28;20060;-53
2022/10/31 00:09:41;;;;;;;31.38;17.15;;;11.90;99.90;;;;;;5003827;28;20080;-53
2022/10/31 00:12:06;;;;;;;33.85;18.65;;;13.90;99.90;;;;;;5008940;28;20037;-54
2022/10/31 00:14:32;;;;;;;32.50;17.15;;;12.90;99.90;;;;;;5006690;28;20058;-51
2022/10/31 00:16:58;;;;;;;37.33;18.25;;;11.80;99.90;;;;;;4999998;28;20274;-50
2022/10/31 00:19:23;;;;;;;30.23;16.73;;;12.00;99.90;;;;;;5004825;28;20052;-51
2022/10/31 00:21:51;;;;;;;29.73;17.00;;;11.60;99.90;;;;;;5006738;28;20046;-49
2022/10/31 00:24:17;;;;;;;36.10;19.15;;;11.80;99.90;;;;;;5005381;28;20034;-53
2022/10/31 00:26:43;;;;;;;35.85;17.83;;;12.20;99.90;;;;;;4986396;28;20068;-52
2022/10/31 00:29:10;;;;;;;36.20;19.40;;;11.50;99.90;;;;;;5004842;28;20041;-54
2022/10/31 00:31:35;;;;;;;29.95;18.95;;;11.40;99.90;;;;;;5010249;28;20049;-52
2022/10/31 00:34:02;;;;;;;38.17;18.95;;;12.50;99.90;;;;;;5004097;28;20047;-54
2022/10/31 00:36:28;;;;;;;30.73;18.13;;;11.50;99.90;;;;;;5008443;28;20050;-54
2022/10/31 00:38:54;;;;;;;34.65;19.08;;;11.50;99.90;;;;;;5007437;28;20050;-48
2022/10/31 00:41:20;;;;;;;41.40;21.08;;;11.80;99.90;;;;;;5007122;28;20082;-53
2022/10/31 00:43:46;;;;;;;38.20;20.70;;;13.10;99.90;;;;;;5006775;28;20040;-52
2022/10/31 00:46:13;;;;;;;40.55;21.27;;;11.30;99.90;;;;;;5006895;28;20133;-54
2022/10/31 00:48:39;;;;;;;40.33;22.05;;;12.80;99.90;;;;;;5008317;28;20045;-55
2022/10/31 00:51:05;;;;;;;38.25;21.73;;;11.30;99.90;;;;;;5001409;28;20044;-53
2022/10/31 00:53:30;;;;;;;41.45;21.75;;;11.40;99.90;;;;;;5005789;28;20047;-52
2022/10/31 00:55:56;;;;;;;35.38;22.13;;;13.40;99.90;;;;;;5004430;28;20038;-52
2022/10/31 00:58:22;;;;;;;38.58;22.17;;;11.40;99.90;;;;;;5006534;28;20559;-54
2022/10/31 01:00:54;;;;;;;31.88;19.88;;;11.30;99.90;;;;;;5005407;28;20121;-54
2022/10/31 01:03:25;;;;;;;32.35;19.70;;;11.60;99.90;;;;;;5006097;28;20049;-53
2022/10/31 01:06:10;;;;;;;30.90;19.20;;;11.10;99.90;;;;;;5002203;28;20057;-54
2022/10/31 01:08:36;;;;;;;35.97;21.92;;;11.10;99.90;;;;;;5005206;28;20049;-52
2022/10/31 01:11:10;;;;;;;38.40;22.00;;;11.10;99.90;;;;;;5004532;28;20479;-50
2022/10/31 01:13:36;;;;;;;35.30;20.60;;;11.10;99.90;;;;;;5002040;28;20049;-53
2022/10/31 01:16:03;;;;;;;31.40;19.90;;;12.20;99.90;;;;;;5004301;28;24875;-55
2022/10/31 01:18:29;;;;;;;38.63;19.92;;;11.10;99.90;;;;;;5000184;28;20152;-53
2022/10/31 01:21:13;;;;;;;37.58;20.45;;;11.00;99.90;;;;;;5006654;28;20835;-54
2022/10/31 01:23:39;;;;;;;38.33;21.15;;;11.10;99.90;;;;;;5004232;28;20037;-55
2022/10/31 01:26:08;;;;;;;36.05;20.83;;;11.10;99.90;;;;;;5006063;28;20519;-54
2022/10/31 01:28:36;;;;;;;31.58;19.35;;;10.90;99.90;;;;;;5004604;28;20042;-51
2022/10/31 01:31:05;;;;;;;37.45;21.20;;;10.90;99.90;;;;;;5006951;28;20048;-53
2022/10/31 01:33:31;;;;;;;45.15;22.92;;;11.00;99.90;;;;;;5000943;28;20067;-54
2022/10/31 01:35:56;;;;;;;44.88;21.73;;;12.80;99.90;;;;;;5003985;28;20478;-53
2022/10/31 01:38:23;;;;;;;40.15;20.88;;;11.00;99.90;;;;;;5000085;28;20132;-54
2022/10/31 01:40:49;;;;;;;37.72;21.77;;;11.00;99.90;;;;;;5003517;28;20056;-55
2022/10/31 01:43:15;;;;;;;40.90;20.70;;;13.30;99.90;;;;;;5005951;28;20038;-51
2022/10/31 01:45:50;;;;;;;41.40;20.23;;;11.20;99.90;;;;;;5007105;28;20069;-55
2022/10/31 01:48:23;;;;;;;38.05;20.38;;;10.90;99.90;;;;;;5004441;28;20045;-53
2022/10/31 01:50:53;;;;;;;31.05;18.63;;;12.20;99.90;;;;;;5005481;28;20034;-54
2022/10/31 01:53:19;;;;;;;34.92;19.40;;;10.90;99.90;;;;;;5003222;28;20081;-53
2022/10/31 01:55:46;;;;;;;30.65;17.98;;;11.90;99.90;;;;;;5005887;28;20049;-51
2022/10/31 01:58:21;;;;;;;34.67;19.73;;;10.70;99.90;;;;;;5007057;28;20053;-53
2022/10/31 02:00:51;;;;;;;31.27;19.08;;;10.60;99.90;;;;;;5004391;28;20132;-54
2022/10/31 02:03:19;;;;;;;42.63;22.20;;;10.70;99.90;;;;;;5007913;28;20715;-55
2022/10/31 02:05:45;;;;;;;33.90;19.92;;;10.90;99.90;;;;;;5005192;28;20037;-50
2022/10/31 02:08:26;;;;;;;36.70;19.40;;;10.70;99.90;;;;;;5005893;28;20056;-54
2022/10/31 02:10:52;;;;;;;31.17;19.02;;;10.80;99.90;;;;;;5003054;28;20038;-54
2022/10/31 02:13:19;;;;;;;34.47;19.40;;;10.70;99.90;;;;;;5004968;28;20052;-54
2022/10/31 02:15:49;;;;;;;39.38;21.55;;;10.90;99.90;;;;;;5002547;28;20422;-53
2022/10/31 02:18:15;;;;;;;31.98;19.08;;;10.60;99.90;;;;;;5003576;28;20100;-54
2022/10/31 02:20:44;;;;;;;42.30;20.38;;;10.70;99.90;;;;;;5003920;28;20037;-54
2022/10/31 02:23:19;;;;;;;36.78;20.90;;;10.50;99.90;;;;;;5007447;28;20069;-53
2022/10/31 02:26:03;;;;;;;27.88;18.65;;;10.70;99.90;;;;;;5003535;28;20466;-54
2022/10/31 02:28:56;;;;;;;31.33;19.27;;;10.80;99.90;;;;;;5004394;28;20064;-54
2022/10/31 02:31:29;;;;;;;37.83;20.33;;;10.70;99.90;;;;;;5001669;28;20469;-54
2022/10/31 02:34:04;;;;;;;31.92;19.08;;;10.60;99.90;;;;;;5004023;28;20037;-54
2022/10/31 02:36:42;;;;;;;34.88;18.52;;;10.50;99.90;;;;;;5003287;28;20542;-55
2022/10/31 02:39:21;;;;;;;36.15;20.55;;;10.50;99.90;;;;;;5003364;28;20037;-54
2022/10/31 02:42:26;;;;;;;36.97;20.92;;;10.50;99.90;;;;;;5004790;28;20124;-52
2022/10/31 02:45:00;;;;;;;38.05;20.08;;;10.50;99.90;;;;;;5006796;28;20221;-55
2022/10/31 02:47:36;;;;;;;35.00;20.35;;;11.20;99.90;;;;;;5005185;28;20128;-53
2022/10/31 02:50:19;;;;;;;34.13;20.50;;;10.50;99.90;;;;;;5001395;28;20042;-54
2022/10/31 02:52:49;;;;;;;38.70;21.00;;;10.40;99.90;;;;;;5001807;28;20053;-55
2022/10/31 02:55:27;;;;;;;40.22;21.20;;;10.60;99.90;;;;;;5004284;28;20921;-53
2022/10/31 02:58:07;;;;;;;32.15;18.88;;;10.60;99.90;;;;;;5006250;28;20077;-55
2022/10/31 03:00:42;;;;;;;32.67;20.45;;;10.60;99.90;;;;;;5004157;28;20105;-55
2022/10/31 03:03:19;;;;;;;27.80;18.33;;;10.50;99.90;;;;;;5001262;28;20135;-53
2022/10/31 03:06:20;;;;;;;34.50;19.83;;;10.30;99.90;;;;;;5000349;28;20575;-53
2022/10/31 03:08:56;;;;;;;33.13;18.55;;;10.40;99.90;;;;;;5002163;28;20064;-55
2022/10/31 03:11:28;;;;;;;32.00;18.77;;;11.40;99.90;;;;;;5003211;28;20586;-55
2022/10/31 03:13:57;;;;;;;30.58;18.38;;;11.00;99.90;;;;;;5004218;28;20052;-54
2022/10/31 03:16:46;;;;;;;29.00;18.85;;;10.50;99.90;;;;;;5003198;28;20050;-54
2022/10/31 03:19:25;;;;;;;26.92;16.92;;;10.30;99.90;;;;;;5004758;28;20151;-53
2022/10/31 03:21:58;;;;;;;27.52;17.08;;;10.30;99.90;;;;;;5004350;28;20052;-55
2022/10/31 03:24:30;;;;;;;29.58;17.25;;;11.50;99.90;;;;;;5002308;28;20567;-54
2022/10/31 03:26:59;;;;;;;30.40;17.75;;;10.30;99.90;;;;;;5006924;28;20052;-52
2022/10/31 03:29:30;;;;;;;27.17;16.70;;;10.20;99.90;;;;;;5003185;28;20041;-54
2022/10/31 03:32:02;;;;;;;29.05;16.70;;;12.10;99.90;;;;;;5009445;28;20269;-55
2022/10/31 03:34:30;;;;;;;;;;;10.20;99.90;;;;;;5009685;28;20550;-54
2022/10/31 03:36:59;;;;;;;29.50;17.88;;;10.40;99.90;;;;;;5007282;28;19925;-55
2022/10/31 03:39:27;;;;;;;31.45;17.63;;;9.90;99.90;;;;;;5006825;28;20053;-54
2022/10/31 03:42:21;;;;;;;28.20;16.35;;;10.40;99.90;;;;;;5005468;28;20400;-56
2022/10/31 03:45:14;;;;;;;28.80;17.80;;;10.60;99.90;;;;;;5008064;28;20046;-54
2022/10/31 03:47:42;;;;;;;28.27;18.15;;;10.10;99.90;;;;;;5013004;28;20053;-54
2022/10/31 03:50:09;;;;;;;38.42;18.35;;;10.10;99.90;;;;;;5005018;28;20065;-55
2022/10/31 03:52:59;;;;;;;27.25;17.42;;;12.20;99.90;;;;;;5005927;28;20026;-55
2022/10/31 03:55:47;;;;;;;31.50;17.00;;;9.90;99.90;;;;;;5005854;28;20061;-55
2022/10/31 03:58:22;;;;;;;32.63;18.65;;;10.30;99.90;;;;;;5007367;28;20064;-55
2022/10/31 04:00:51;;;;;;;30.15;18.38;;;9.90;99.90;;;;;;5006495;28;20048;-55
2022/10/31 04:03:27;;;;;;;33.53;19.73;;;9.80;99.90;;;;;;5005012;28;20041;-54
2022/10/31 04:05:56;;;;;;;31.67;18.80;;;10.00;99.90;;;;;;5002396;28;20089;-55
2022/10/31 04:08:26;;;;;;;27.70;16.80;;;11.00;99.90;;;;;;5004660;28;20045;-55
2022/10/31 04:10:54;;;;;;;32.85;19.27;;;9.80;99.90;;;;;;5005833;28;20064;-55
2022/10/31 04:13:24;;;;;;;26.08;17.70;;;9.90;99.90;;;;;;5007460;28;20064;-55
2022/10/31 04:15:54;;;;;;;29.85;18.80;;;10.00;99.90;;;;;;5004524;28;20091;-54
2022/10/31 04:18:20;;;;;;;27.05;17.25;;;9.90;99.90;;;;;;5008091;28;20064;-54
2022/10/31 04:20:49;;;;;;;36.70;18.95;;;9.90;99.90;;;;;;5004752;28;20034;-53
2022/10/31 04:23:25;;;;;;;32.83;18.05;;;10.90;99.90;;;;;;5005904;28;20224;-55
2022/10/31 04:25:51;;;;;;;30.38;17.42;;;9.70;99.90;;;;;;5003229;28;20404;-55
2022/10/31 04:28:17;;;;;;;39.15;18.73;;;11.90;99.90;;;;;;5005893;28;20052;-55
2022/10/31 04:30:43;;;;;;;26.85;16.70;;;9.90;99.90;;;;;;5005472;28;20049;-54
2022/10/31 04:33:09;;;;;;;32.08;17.85;;;9.90;99.90;;;;;;5007829;28;20033;-55
2022/10/31 04:35:35;;;;;;;30.13;18.17;;;9.70;99.90;;;;;;5007279;28;20518;-55
2022/10/31 04:38:00;;;;;;;27.98;17.95;;;9.70;99.90;;;;;;5006778;28;20038;-53
2022/10/31 04:40:26;;;;;;;26.60;16.63;;;11.20;99.90;;;;;;5007583;28;20053;-55
2022/10/31 04:42:52;;;;;;;26.33;16.90;;;9.60;99.90;;;;;;5006455;28;20118;-54
2022/10/31 04:45:18;;;;;;;30.35;17.45;;;9.60;99.90;;;;;;5004525;28;20048;-53
2022/10/31 04:47:43;;;;;;;27.40;17.38;;;10.00;99.90;;;;;;5004536;28;20042;-55
2022/10/31 04:50:09;;;;;;;27.35;17.40;;;11.00;99.90;;;;;;5009812;28;20166;-55
2022/10/31 04:52:42;;;;;;;30.23;17.73;;;9.50;99.90;;;;;;5006379;28;20044;-56
2022/10/31 04:55:09;;;;;;;29.20;17.10;;;11.60;99.90;;;;;;5004482;28;20534;-55
2022/10/31 04:57:46;;;;;;;31.20;17.20;;;9.50;99.90;;;;;;5008612;28;20049;-55
2022/10/31 05:00:14;;;;;;;30.20;17.33;;;9.50;99.90;;;;;;5003492;28;20037;-55
2022/10/31 05:02:44;;;;;;;30.30;18.33;;;9.50;99.90;;;;;;5007644;28;20053;-55
2022/10/31 05:05:10;;;;;;;35.63;18.33;;;11.20;99.90;;;;;;5004447;28;20056;-55
2022/10/31 05:07:44;;;;;;;27.98;16.92;;;10.70;99.90;;;;;;5004251;28;20607;-55
2022/10/31 05:10:11;;;;;;;26.48;15.63;;;9.80;99.90;;;;;;5002318;28;20092;-55
2022/10/31 05:12:37;;;;;;;24.98;15.95;;;9.30;99.90;;;;;;5006146;28;20103;-55
2022/10/31 05:15:04;;;;;;;20.13;15.07;;;10.00;99.90;;;;;;5006944;28;20411;-55
2022/10/31 05:17:31;;;;;;;20.13;14.55;;;9.20;99.90;;;;;;5004157;28;20604;-56
2022/10/31 05:19:57;;;;;;;26.73;17.50;;;10.00;99.90;;;;;;5004090;28;20729;-55
2022/10/31 05:22:23;;;;;;;25.83;15.45;;;9.30;99.90;;;;;;4990197;28;20042;-55
2022/10/31 05:24:48;;;;;;;28.55;17.60;;;9.80;99.90;;;;;;5006967;28;20055;-55
2022/10/31 05:27:14;;;;;;;32.90;18.15;;;9.10;99.90;;;;;;5006161;28;20490;-55
2022/10/31 05:29:40;;;;;;;32.45;18.83;;;9.40;99.90;;;;;;5007064;28;20394;-54
2022/10/31 05:32:05;;;;;;;37.10;19.80;;;10.30;99.90;;;;;;5007844;28;20106;-52
2022/10/31 05:34:31;;;;;;;28.50;16.83;;;10.50;99.90;;;;;;5004092;28;20041;-55
2022/10/31 05:36:57;;;;;;;34.88;17.48;;;11.50;99.90;;;;;;5007864;28;20038;-51
2022/10/31 05:39:22;;;;;;;29.75;16.70;;;9.20;99.90;;;;;;5005052;28;20065;-55
2022/10/31 05:41:48;;;;;;;23.75;14.88;;;9.40;99.90;;;;;;5004335;28;20113;-54
2022/10/31 05:44:14;;;;;;;17.90;11.32;;;9.40;99.90;;;;;;5003339;28;20577;-53
2022/10/31 05:46:39;;;;;;;19.30;9.00;;;9.90;99.90;;;;;;5004486;28;20030;-53
2022/10/31 05:49:05;;;;;;;36.33;14.30;;;10.30;99.90;;;;;;5005542;28;20076;-55
2022/10/31 05:51:31;;;;;;;40.10;13.00;;;11.00;99.90;;;;;;5003794;28;20096;-55
2022/10/31 05:53:56;;;;;;;25.98;14.63;;;9.10;99.90;;;;;;5005881;28;20050;-56
2022/10/31 05:56:22;;;;;;;35.38;15.45;;;9.90;99.90;;;;;;5007772;28;20102;-51
2022/10/31 05:58:48;;;;;;;127.75;19.52;;;9.10;99.90;;;;;;5005765;28;20119;-53
2022/10/31 06:01:13;;;;;;;55.15;16.85;;;10.70;99.90;;;;;;5006783;28;20094;-55
2022/10/31 06:03:39;;;;;;;85.30;16.02;;;8.80;99.90;;;;;;5001028;28;20574;-56
2022/10/31 06:06:05;;;;;;;30.20;13.43;;;10.00;99.90;;;;;;5004649;28;20037;-55
2022/10/31 06:08:31;;;;;;;26.27;14.88;;;8.80;99.90;;;;;;5004887;28;20041;-55
2022/10/31 06:10:56;;;;;;;45.88;12.40;;;8.80;99.90;;;;;;5006657;28;20077;-56
2022/10/31 06:13:22;;;;;;;26.48;11.95;;;8.60;99.90;;;;;;5000607;28;20046;-52
2022/10/31 06:15:48;;;;;;;16.83;8.68;;;9.20;99.90;;;;;;4993855;28;21055;-56
2022/10/31 06:18:13;;;;;;;20.48;9.73;;;8.80;99.90;;;;;;5001718;28;20124;-55
2022/10/31 06:20:39;;;;;;;21.17;11.60;;;9.80;99.90;;;;;;5001578;28;20048;-56
2022/10/31 06:23:06;;;;;;;71.53;11.38;;;10.80;99.90;;;;;;5002974;28;20034;-56
2022/10/31 06:25:32;;;;;;;57.08;16.42;;;9.10;99.90;;;;;;5002825;28;20049;-55
2022/10/31 06:27:58;;;;;;;336.42;22.10;;;8.50;99.90;;;;;;5003313;28;20053;-56
2022/10/31 06:30:24;;;;;;;183.02;19.92;;;9.40;99.90;;;;;;5005433;28;20099;-55
2022/10/31 06:32:50;;;;;;;142.82;20.52;;;9.50;99.90;;;;;;5005215;28;20041;-56
2022/10/31 06:35:16;;;;;;;102.15;20.33;;;8.70;99.90;;;;;;5006599;28;20683;-55
2022/10/31 06:37:42;;;;;;;72.13;18.13;;;9.50;99.90;;;;;;5006116;28;20042;-57
2022/10/31 06:40:08;;;;;;;75.28;12.43;;;8.80;99.90;;;;;;5003610;28;20041;-57
2022/10/31 06:42:34;;;;;;;48.15;15.70;;;8.80;99.90;;;;;;5004435;28;20232;-57
2022/10/31 06:45:00;;;;;;;18.67;12.45;;;8.70;99.90;;;;;;5005121;28;20041;-56
2022/10/31 06:47:25;;;;;;;23.10;12.68;;;9.30;99.90;;;;;;5006067;28;20056;-56
2022/10/31 06:49:51;;;;;;;14.75;10.63;;;8.80;99.90;;;;;;5001854;28;20578;-57
2022/10/31 06:52:17;;;;;;;23.08;10.30;;;8.90;99.90;;;;;;5004388;28;20125;-57
2022/10/31 06:54:43;;;;;;;18.40;11.38;;;9.40;99.90;;;;;;5003196;28;20045;-57
2022/10/31 06:57:08;;;;;;;19.48;12.40;;;9.90;99.90;;;;;;5003497;28;20419;-56
2022/10/31 06:59:34;;;;;;;18.02;11.23;;;8.70;99.90;;;;;;5004230;28;20036;-56
2022/10/31 07:02:00;;;;;;;17.30;13.10;;;8.80;99.90;;;;;;5002959;28;20102;-57
2022/10/31 07:04:25;;;;;;;21.60;14.40;;;9.00;99.90;;;;;;5005757;28;20045;-57
2022/10/31 07:06:52;;;;;;;20.15;14.05;;;8.80;99.90;;;;;;5003729;28;20050;-56
2022/10/31 07:09:18;;;;;;;17.63;11.82;;;8.70;99.90;;;;;;5004172;28;20553;-57
2022/10/31 07:11:44;;;;;;;24.02;12.23;;;9.10;99.90;;;;;;5003626;28;20141;-57
2022/10/31 07:14:09;;;;;;;15.20;11.40;;;9.50;99.90;;;;;;4999387;28;20132;-57
2022/10/31 07:16:35;;;;;;;17.27;12.75;;;10.50;99.90;;;;;;5004742;28;20045;-56
2022/10/31 07:19:01;;;;;;;18.52;10.65;;;8.70;99.90;;;;;;5002785;28;20042;-57
2022/10/31 07:21:27;;;;;;;20.05;15.10;;;8.90;99.90;;;;;;5005476;28;20049;-57
2022/10/31 07:23:52;;;;;;;17.85;11.77;;;10.00;99.90;;;;;;5003083;28;20064;-56
2022/10/31 07:26:18;;;;;;;141.10;17.00;;;10.50;99.90;;;;;;5006463;28;20033;-57
2022/10/31 07:28:46;;;;;;;21.33;12.75;;;8.90;99.90;;;;;;5007542;28;20812;-56
2022/10/31 07:31:12;;;;;;;10.88;8.45;;;10.70;99.90;;;;;;5002266;28;20466;-57
2022/10/31 07:33:38;;;;;;;51.92;12.80;;;9.10;99.90;;;;;;5004676;28;20140;-57
2022/10/31 07:36:04;;;;;;;64.10;10.73;;;9.10;99.90;;;;;;5004934;28;20049;-56
2022/10/31 07:38:29;;;;;;;18.60;11.52;;;9.60;99.90;;;;;;5073256;28;20039;-57
2022/10/31 07:40:55;;;;;;;16.67;13.48;;;9.50;99.90;;;;;;5002708;28;20033;-56
2022/10/31 07:43:22;;;;;;;26.45;18.00;;;9.70;99.90;;;;;;5005623;28;20054;-57
2022/10/31 07:45:54;;;;;;;21.52;15.23;;;10.20;99.90;;;;;;5001369;28;20044;-57
2022/10/31 07:48:20;;;;;;;;;;;10.50;99.90;;;;;;5001832;28;20111;-57
2022/10/31 07:50:46;;;;;;;22.05;16.60;;;11.60;99.90;;;;;;5000977;28;19975;-56
2022/10/31 07:53:13;;;;;;;26.33;16.92;;;12.90;99.90;;;;;;5000764;28;20053;-55
2022/10/31 07:55:39;;;;;;;24.55;15.93;;;11.50;99.90;;;;;;5002727;28;20506;-57
2022/10/31 07:58:10;;;;;;;22.92;14.82;;;11.80;99.90;;;;;;5004019;28;20140;-56
2022/10/31 08:00:38;;;;;;;18.83;13.57;;;11.80;99.90;;;;;;5002986;28;20037;-57
2022/10/31 08:03:11;;;;;;;18.42;13.18;;;11.60;99.90;;;;;;5002065;28;20042;-57
2022/10/31 08:05:37;;;;;;;23.10;14.45;;;13.90;99.90;;;;;;5001669;28;20037;-56
2022/10/31 08:08:06;;;;;;;18.08;14.05;;;11.70;99.90;;;;;;5003885;28;20037;-57
2022/10/31 08:10:33;;;;;;;20.60;14.07;;;11.80;99.90;;;;;;4999174;28;20072;-57
2022/10/31 08:13:04;;;;;;;20.23;13.73;;;11.60;99.90;;;;;;5003738;28;20289;-57
2022/10/31 08:15:30;;;;;;;18.40;15.13;;;11.50;99.90;;;;;;5002954;28;20128;-57
2022/10/31 08:17:56;;;;;;;20.08;14.48;;;11.50;99.90;;;;;;4982633;28;20046;-57
2022/10/31 08:20:22;;;;;;;19.17;15.27;;;11.60;99.90;;;;;;5003613;28;20450;-57
2022/10/31 08:22:56;;;;;;;20.27;14.10;;;12.80;99.90;;;;;;5004243;28;20049;-57
2022/10/31 08:25:22;;;;;;;21.65;15.18;;;11.50;99.90;;;;;;5004194;28;20140;-57
2022/10/31 08:27:55;;;;;;;23.38;15.77;;;11.70;99.90;;;;;;5007747;28;20129;-57
2022/10/31 08:30:22;;;;;;;22.45;14.88;;;11.60;99.90;;;;;;5007727;28;20037;-56
2022/10/31 08:32:57;;;;;;;22.58;15.35;;;11.50;99.90;;;;;;5003149;28;20041;-57
2022/10/31 08:35:23;;;;;;;23.60;15.98;;;11.90;99.90;;;;;;5004628;28;20044;-57
2022/10/31 08:37:56;;;;;;;21.20;14.93;;;12.40;99.90;;;;;;5004307;28;20037;-57
2022/10/31 08:40:22;;;;;;;22.98;15.07;;;13.10;99.90;;;;;;5004876;28;20045;-57
2022/10/31 08:42:54;;;;;;;23.67;16.40;;;13.20;99.90;;;;;;5004626;28;20126;-57
2022/10/31 08:45:20;;;;;;;24.20;15.98;;;12.20;99.90;;;;;;5005499;28;20049;-57
2022/10/31 08:47:46;;;;;;;22.83;16.40;;;12.20;99.90;;;;;;5007104;28;20041;-56
2022/10/31 08:50:11;;;;;;;20.55;14.85;;;12.40;99.90;;;;;;5006496;28;20527;-57
2022/10/31 08:52:37;;;;;;;17.65;14.23;;;12.50;99.90;;;;;;5003819;28;20049;-57
2022/10/31 08:55:03;;;;;;;22.95;15.70;;;13.00;99.90;;;;;;5006903;28;20107;-57
2022/10/31 08:57:30;;;;;;;24.13;15.55;;;13.60;99.90;;;;;;5006550;28;20128;-57
2022/10/31 08:59:56;;;;;;;17.92;14.63;;;14.30;99.90;;;;;;5005750;28;20075;-56
2022/10/31 09:02:21;;;;;;;17.77;13.07;;;14.80;99.90;;;;;;5009320;28;20069;-57
2022/10/31 09:04:47;;;;;;;18.67;14.07;;;15.00;99.90;;;;;;5008163;28;20060;-56
2022/10/31 09:07:13;;;;;;;18.13;13.27;;;15.50;99.90;;;;;;5005809;28;20049;-57
2022/10/31 09:09:38;;;;;;;15.48;12.27;;;16.10;99.90;;;;;;5008723;28;20090;-57
2022/10/31 09:12:04;;;;;;;19.10;13.07;;;16.20;99.90;;;;;;5004077;28;20098;-57
2022/10/31 09:14:30;;;;;;;16.48;13.25;;;16.10;99.90;;;;;;5005206;28;20129;-57
2022/10/31 09:16:55;;;;;;;18.70;12.32;;;16.30;99.90;;;;;;5001832;28;20077;-57
2022/10/31 09:19:21;;;;;;;16.48;12.48;;;16.60;99.90;;;;;;4999174;28;20623;-57
2022/10/31 09:21:47;;;;;;;16.40;12.82;;;16.50;99.90;;;;;;5007141;28;20041;-56
2022/10/31 09:24:12;;;;;;;20.20;13.73;;;16.40;99.90;;;;;;5004310;28;20124;-57
2022/10/31 09:26:38;;;;;;;15.00;12.20;;;16.00;99.90;;;;;;5005036;28;20414;-58
2022/10/31 09:29:04;;;;;;;18.98;12.57;;;16.30;99.90;;;;;;5006588;28;20103;-56
2022/10/31 09:31:30;;;;;;;15.45;12.23;;;16.10;99.90;;;;;;5007563;28;20484;-57
2022/10/31 09:33:55;;;;;;;15.35;12.82;;;15.70;99.90;;;;;;5004962;28;20051;-56
2022/10/31 09:36:21;;;;;;;16.80;12.63;;;15.30;99.90;;;;;;5002215;28;20364;-57
2022/10/31 09:38:47;;;;;;;18.25;12.32;;;14.90;99.90;;;;;;5005222;28;20038;-57
2022/10/31 09:41:38;;;;;;;17.58;12.35;;;14.80;99.90;;;;;;5003120;28;20038;-56
2022/10/31 09:44:07;;;;;;;15.50;11.82;;;14.90;99.90;;;;;;5006562;28;20042;-56
2022/10/31 09:46:58;;;;;;;20.83;13.50;;;14.60;99.90;;;;;;5004045;28;20048;-57
2022/10/31 09:49:29;;;;;;;15.90;12.15;;;14.80;99.90;;;;;;5007062;28;20790;-57
2022/10/31 09:52:17;;;;;;;16.90;11.90;;;14.60;99.90;;;;;;5002021;28;20048;-57
2022/10/31 09:55:05;;;;;;;17.50;12.38;;;14.60;99.90;;;;;;5006740;28;20064;-57
2022/10/31 09:57:36;;;;;;;16.35;11.57;;;14.50;99.90;;;;;;5010712;28;20046;-57
2022/10/31 10:00:07;;;;;;;16.83;12.15;;;14.40;99.90;;;;;;5003953;28;20068;-57
2022/10/31 10:02:46;;;;;;;15.40;12.05;;;14.30;99.90;;;;;;5007506;28;20116;-56
2022/10/31 10:05:17;;;;;;;16.88;12.15;;;14.10;99.90;;;;;;5005509;28;20041;-56
2022/10/31 10:08:18;;;;;;;14.27;11.63;;;14.20;99.90;;;;;;5004868;28;20041;-57
2022/10/31 10:10:53;;;;;;;16.73;10.98;;;14.00;99.90;;;;;;5006276;28;20037;-56
2022/10/31 10:13:48;;;;;;;18.33;12.05;;;14.10;99.90;;;;;;5007359;28;20053;-57
2022/10/31 10:16:33;;;;;;;15.35;12.00;;;14.00;99.90;;;;;;5011841;28;20064;-57
2022/10/31 10:19:43;;;;;;;17.70;11.65;;;14.20;99.90;;;;;;5004378;28;20058;-57
2022/10/31 10:22:52;;;;;;;14.68;10.27;;;14.30;99.90;;;;;;5004672;28;20042;-57
2022/10/31 10:25:23;;;;;;;14.60;10.40;;;14.60;99.90;;;;;;5013996;28;20048;-57
2022/10/31 10:28:02;;;;;;;14.65;10.90;;;14.70;99.90;;;;;;5013037;28;20103;-57
2022/10/31 10:30:41;;;;;;;16.65;12.60;;;14.50;99.90;;;;;;5013604;28;20057;-57
2022/10/31 10:33:14;;;;;;;20.85;11.63;;;14.50;99.90;;;;;;5019928;28;20129;-56
2022/10/31 10:35:50;;;;;;;16.25;11.15;;;14.60;99.90;;;;;;5004216;28;20037;-57
2022/10/31 10:38:27;;;;;;;17.75;11.15;;;14.40;99.90;;;;;;5004047;28;20049;-57
2022/10/31 10:40:53;;;;;;;16.60;10.95;;;14.60;99.90;;;;;;5002185;28;20034;-57
2022/10/31 10:43:37;;;;;;;15.63;10.82;;;14.30;99.90;;;;;;5002860;28;20098;-57
2022/10/31 10:49:12;;;;;;;16.90;11.07;;;14.30;99.90;;;;;;5005667;28;20041;-57
2022/10/31 10:51:47;;;;;;;19.77;10.85;;;14.30;99.90;;;;;;5002917;28;20045;-57
2022/10/31 10:54:44;;;;;;;18.17;11.30;;;14.20;99.90;;;;;;5002753;28;20140;-56
2022/10/31 10:57:20;;;;;;;16.23;10.95;;;14.20;99.90;;;;;;5003453;28;20080;-58
2022/10/31 10:59:46;;;;;;;17.80;11.20;;;14.40;99.90;;;;;;5006652;28;20053;-56
2022/10/31 11:02:23;;;;;;;17.80;11.52;;;14.80;99.90;;;;;;5001313;28;20124;-57
2022/10/31 11:04:56;;;;;;;16.70;10.07;;;14.70;99.90;;;;;;5004116;28;20084;-57
2022/10/31 11:07:22;;;;;;;17.92;10.35;;;14.90;99.90;;;;;;5002413;28;20053;-57
2022/10/31 11:09:48;;;;;;;14.82;9.98;;;14.80;99.90;;;;;;5005741;28;20045;-57
2022/10/31 11:12:27;;;;;;;16.63;9.93;;;14.80;99.90;;;;;;5001453;28;20041;-57
2022/10/31 11:15:03;;;;;;;16.60;9.18;;;14.70;99.90;;;;;;5005343;28;20392;-57
2022/10/31 11:17:36;;;;;;;16.77;9.50;;;14.70;99.90;;;;;;5004847;28;20053;-56
2022/10/31 11:20:20;;;;;;;17.38;9.35;;;14.80;99.90;;;;;;5002993;28;21028;-56
2022/10/31 11:22:48;;;;;;;16.45;9.63;;;14.80;98.80;;;;;;5003173;28;20342;-57
2022/10/31 11:25:19;;;;;;;17.75;8.77;;;14.60;99.90;;;;;;5003893;28;20073;-57
2022/10/31 11:27:45;;;;;;;16.73;10.10;;;14.60;99.90;;;;;;5002299;28;20071;-56
2022/10/31 11:30:14;;;;;;;16.23;9.35;;;14.50;99.90;;;;;;5002036;28;20046;-56
2022/10/31 11:32:48;;;;;;;15.80;9.27;;;14.40;99.90;;;;;;5001424;28;20050;-57
2022/10/31 11:35:18;;;;;;;20.17;9.10;;;14.50;99.90;;;;;;5002536;28;20038;-56
2022/10/31 11:37:46;;;;;;;16.58;9.20;;;14.40;99.90;;;;;;5001824;28;20041;-57
2022/10/31 11:40:17;;;;;;;20.17;9.82;;;14.30;99.90;;;;;;5005074;28;20077;-56
2022/10/31 11:42:43;;;;;;;16.38;9.48;;;14.50;99.90;;;;;;4998807;28;20296;-57
2022/10/31 11:45:16;;;;;;;18.50;9.85;;;14.40;99.90;;;;;;5002628;28;20098;-57
2022/10/31 11:47:47;;;;;;;16.48;8.90;;;14.50;99.90;;;;;;5004157;28;20266;-56
2022/10/31 11:50:20;;;;;;;17.38;9.77;;;14.70;99.90;;;;;;5002165;28;20224;-56
2022/10/31 11:52:46;;;;;;;13.18;8.88;;;14.90;99.90;;;;;;5005662;28;20918;-57
2022/10/31 11:55:12;;;;;;;15.18;8.45;;;14.80;99.90;;;;;;5005350;28;20153;-57
2022/10/31 11:57:46;;;;;;;17.92;9.40;;;14.90;99.90;;;;;;5006575;28;20088;-57
2022/10/31 12:00:26;;;;;;;12.68;8.02;;;15.00;99.90;;;;;;5006865;28;20044;-57
2022/10/31 12:03:10;;;;;;;14.00;8.80;;;15.10;99.90;;;;;;5007524;28;20090;-57
2022/10/31 12:05:37;;;;;;;11.73;7.70;;;15.20;99.90;;;;;;5003844;28;20053;-58
2022/10/31 12:08:03;;;;;;;14.88;7.78;;;15.20;99.90;;;;;;5003969;28;20045;-57
2022/10/31 12:10:58;;;;;;;14.85;7.75;;;16.80;99.90;;;;;;5002965;28;20065;-57
2022/10/31 12:13:34;;;;;;;12.05;7.35;;;15.20;99.50;;;;;;5003822;28;20101;-57
2022/10/31 12:16:28;;;;;;;10.65;6.45;;;15.40;99.90;;;;;;5004224;28;20065;-57
2022/10/31 12:19:06;;;;;;;11.15;6.07;;;15.20;99.90;;;;;;5004284;28;20117;-56
2022/10/31 12:21:53;;;;;;;8.70;5.60;;;15.40;99.40;;;;;;5006114;28;20110;-56
2022/10/31 12:24:39;;;;;;;10.93;5.72;;;15.20;98.00;;;;;;5004939;28;20071;-57
2022/10/31 12:27:13;;;;;;;11.02;6.05;;;15.20;97.50;;;;;;5005258;28;20090;-57
2022/10/31 12:30:23;;;;;;;9.63;4.97;;;15.10;98.90;;;;;;5007227;28;20037;-56
2022/10/31 12:32:57;;;;;;;10.65;5.13;;;15.20;96.50;;;;;;5016147;28;20065;-56
2022/10/31 12:35:55;;;;;;;10.40;5.20;;;15.10;97.20;;;;;;5008433;28;20043;-57
2022/10/31 12:38:24;;;;;;;8.77;4.68;;;15.20;98.50;;;;;;5020019;28;20068;-57
2022/10/31 12:41:11;;;;;;;10.77;4.82;;;15.10;98.70;;;;;;5006506;28;20045;-57
2022/10/31 12:43:52;;;;;;;9.40;4.68;;;15.20;97.40;;;;;;5007964;28;20049;-57
2022/10/31 12:46:21;;;;;;;11.35;5.47;;;15.00;96.60;;;;;;5003709;28;20046;-57
2022/10/31 12:49:05;;;;;;;10.13;3.95;;;15.20;96.40;;;;;;5005846;28;20910;-57
2022/10/31 12:52:03;;;;;;;10.45;4.60;;;15.10;97.50;;;;;;5008216;28;20051;-57
2022/10/31 12:54:40;;;;;;;11.05;3.72;;;15.20;97.30;;;;;;5004477;28;20050;-56